Date,TemperatureHighF,TemperatureAvgF,TemperatureLowF,DewpointHighF,DewpointAvgF,DewpointLowF,HumidityHigh,HumidityAvg,HumidityLow,PressureMaxIn,PressureMinIn,WindSpeedMaxMPH,WindSpeedAvgMPH,GustSpeedMaxMPH,PrecipitationSumIn
2013-1-1,39,27,20,32,25,19,99,91,62,30.22,30.15,1,0,2,0.00
2013-1-2,49,32,23,27,22,3,96,70,15,30.18,30.08,2,1,6,0.00
2013-1-3,51,37,24,27,16,1,83,49,13,30.25,30.11,2,1,6,0.00
2013-1-4,45,30,22,23,19,8,86,67,22,30.32,30.25,1,0,3,0.00
2013-1-5,49,32,24,28,22,15,85,70,26,30.35,30.22,1,0,2,0.00
2013-1-6,33,30,27,31,27,20,100,87,68,30.25,29.80,1,0,3,0.00
2013-1-7,44,37,26,27,18,10,98,50,24,30.15,29.94,2,1,11,0.00
2013-1-8,54,36,29,32,27,20,94,73,27,30.28,30.15,1,0,5,0.00
2013-1-9,53,38,32,35,32,29,96,81,39,30.32,30.11,1,0,2,0.00
2013-1-10,34,30,20,34,29,18,100,96,77,30.11,29.87,2,1,6,0.00
2013-1-11,29,22,16,22,17,14,96,84,57,30.08,29.73,1,0,3,0.00
2013-1-12,31,22,15,18,13,6,95,73,36,30.08,29.97,1,0,4,0.00
2013-1-13,32,23,13,15,11,3,92,63,31,30.08,30.01,1,0,4,0.00
2013-1-14,31,24,11,12,6,-7,84,48,24,30.25,30.04,2,1,5,0.00
2013-1-15,45,32,18,22,15,6,75,52,29,30.39,30.25,2,1,7,0.00
2013-1-16,48,45,40,23,21,20,46,39,34,30.39,30.35,2,1,5,0.00
2013-1-17,50,38,32,27,25,24,73,61,36,30.32,30.25,1,0,1,0.00
2013-1-18,58,38,29,29,24,18,78,61,22,30.32,30.25,1,0,3,0.00
2013-1-19,57,40,29,27,22,14,79,54,19,30.35,30.28,1,0,3,0.00
2013-1-20,58,39,28,25,19,11,67,49,16,30.32,30.22,1,0,3,0.00
2013-1-21,58,40,29,24,16,5,62,44,12,30.28,30.22,1,0,3,0.00
2013-1-22,63,42,28,29,22,10,69,50,12,30.32,30.25,1,0,3,0.00
2013-1-23,59,48,39,36,32,27,78,58,30,30.32,30.25,2,1,7,0.00
2013-1-24,51,46,41,50,44,36,98,93,69,30.32,30.22,1,0,5,0.00
2013-1-25,49,46,43,48,45,43,99,97,95,30.28,30.11,1,0,3,0.00
2013-1-26,45,44,42,45,44,41,99,99,99,30.11,30.01,1,0,2,0.00
2013-1-27,42,36,29,41,34,29,100,95,82,30.08,29.97,1,1,3,0.00
2013-1-28,31,28,22,29,24,21,100,89,71,30.08,29.97,1,0,4,0.00
2013-1-29,44,30,21,33,25,20,99,85,48,0.00,40.00,2,1,4,0.00
2013-1-30,51,40,29,37,31,24,98,74,46,0.00,40.00,2,1,7,0.00
2013-1-31,55,42,32,37,32,25,93,69,39,0.00,40.00,1,0,4,0.00
2013-2-1,42,33,30,32,30,28,96,89,67,0.00,40.00,1,0,1,0.00
2013-2-3,37,34,32,36,34,32,100,98,97,0.00,40.00,0,0,1,0.00
2013-2-4,56,42,32,38,34,30,100,75,44,0.00,40.00,1,0,4,0.00
2013-2-5,55,39,29,37,30,25,97,76,34,0.00,40.00,1,0,3,0.00
2013-2-6,51,37,28,38,30,23,90,77,38,0.00,40.00,2,0,4,0.00
2013-2-7,52,36,27,36,27,16,95,71,25,0.00,40.00,1,0,4,0.00
2013-2-8,32,28,26,31,28,26,100,100,99,0.00,40.00,2,1,4,0.00
2013-2-9,30,28,25,27,26,24,99,90,83,0.00,40.00,1,0,3,0.00
2013-2-15,35,33,32,28,26,25,80,77,74,0.00,40.00,1,0,3,0.00
2013-2-16,58,40,30,31,24,6,81,60,12,0.00,40.00,1,0,4,0.00
2013-2-17,50,38,28,31,22,11,86,61,22,0.00,40.00,1,0,3,0.00
2013-2-18,52,36,27,33,26,20,92,71,28,0.00,40.00,1,0,3,0.00
2013-2-19,33,29,23,31,26,16,100,92,68,0.00,40.00,2,1,4,0.00
2013-2-20,30,26,21,29,25,19,100,97,90,0.00,40.00,1,0,4,0.00
2013-2-21,32,24,16,30,22,15,97,92,80,0.00,40.00,2,0,5,0.00
2013-2-22,41,27,17,33,23,16,98,88,53,0.00,40.00,1,0,3,0.00
2013-2-23,45,32,24,31,26,23,99,82,43,0.00,40.00,1,0,4,0.00
2013-2-24,43,32,23,25,17,1,98,59,20,0.00,40.00,2,0,7,0.00
2013-2-25,47,32,21,28,17,8,83,62,20,30.18,30.15,1,0,3,0.00
2013-2-26,52,35,25,29,21,12,86,62,20,30.22,30.08,1,0,4,0.00
2013-2-27,50,37,25,28,17,3,78,50,18,30.39,30.22,2,1,8,0.00
2013-2-28,56,46,37,29,15,1,70,32,15,30.49,30.35,2,1,8,0.00
2013-3-1,63,48,31,32,23,14,80,45,16,30.49,30.18,2,1,7,0.00
2013-3-2,64,44,31,35,26,18,79,56,18,30.46,30.32,1,0,5,0.00
2013-3-3,55,43,34,34,28,21,78,58,30,30.32,30.11,1,1,3,0.00
2013-3-4,50,41,32,41,35,26,91,80,67,30.22,30.08,1,0,3,0.00
2013-3-5,57,41,31,42,32,24,92,72,36,30.22,30.15,1,1,4,0.00
2013-3-6,49,36,28,38,30,13,96,81,25,30.18,30.08,1,1,3,0.00
2013-3-7,40,35,29,37,34,29,100,97,88,30.08,29.90,1,1,4,0.00
2013-3-8,32,30,28,32,29,27,100,99,92,30.04,29.80,1,0,3,0.00
2013-3-9,36,32,30,35,32,30,100,99,96,30.18,29.80,1,0,2,0.00
2013-3-13,67,49,32,40,35,30,97,64,25,30.39,30.32,1,1,3,0.00
2013-3-14,72,57,40,44,38,29,88,56,22,30.39,30.32,1,1,4,0.00
2013-3-15,70,50,39,46,37,28,93,67,24,30.32,30.18,1,0,3,0.00
2013-3-16,65,49,38,41,30,14,79,53,15,30.18,30.08,1,1,4,0.00
2013-3-17,64,46,35,40,32,27,84,61,30,30.15,30.08,1,1,3,0.00
2013-3-18,62,45,32,43,32,22,82,62,41,30.18,30.08,1,0,3,0.00
2013-3-19,59,47,36,43,33,26,86,60,36,0.00,40.00,1,1,5,0.00
2013-3-20,58,46,38,40,34,25,88,67,28,0.00,40.00,1,0,3,0.00
2013-3-21,59,46,36,42,36,28,87,69,40,0.00,40.00,1,0,4,0.00
2013-3-22,59,46,31,39,30,13,90,58,18,0.00,40.00,2,1,6,0.00
2013-3-23,60,44,31,33,25,13,79,53,18,0.00,40.00,1,0,3,0.00
2013-3-24,62,44,32,35,28,23,87,58,26,0.00,40.00,1,0,3,0.00
2013-3-25,64,46,34,37,28,19,76,53,18,0.00,40.00,1,0,4,0.00
2013-3-26,59,44,34,31,27,19,75,54,23,0.00,40.00,1,0,4,0.00
2013-3-27,57,45,36,41,34,26,92,66,38,0.00,40.00,1,0,4,0.00
2013-3-28,61,45,33,40,32,28,94,63,30,0.00,40.00,1,0,4,0.00
2013-3-29,65,48,34,37,33,31,89,61,31,0.00,40.00,1,0,5,0.00
2013-3-30,61,50,40,45,34,-100,90,60,31,0.00,40.00,1,0,4,0.00
2013-3-31,52,43,34,44,37,28,98,80,57,0.00,40.00,1,0,4,0.00
2013-4-1,49,40,28,39,35,25,98,83,55,0.00,40.00,1,1,4,0.00
2013-4-2,59,44,30,42,35,28,98,73,39,0.00,40.00,1,0,3,0.00
2013-4-3,55,44,35,39,36,31,86,75,54,0.00,40.00,0,0,1,0.00
2013-4-4,62,49,38,39,34,27,81,59,30,0.00,40.00,1,0,4,0.00
2013-4-5,57,44,35,44,35,22,94,73,26,0.00,40.00,1,1,4,0.00
2013-4-6,59,45,35,44,40,33,95,82,58,0.00,40.00,1,0,3,0.00
2013-4-7,61,47,38,47,39,30,90,74,54,0.00,40.00,1,0,3,0.00
2013-4-8,41,36,32,40,35,30,100,97,79,0.00,40.00,2,1,7,0.00
2013-4-9,51,38,28,33,26,13,100,71,22,0.00,40.00,1,1,4,0.00
2013-4-10,61,46,30,30,22,13,87,44,15,0.00,40.00,2,1,6,0.00
2013-4-11,62,47,34,42,31,24,83,59,25,0.00,40.00,1,0,5,0.00
2013-4-12,68,51,38,46,35,27,82,59,23,0.00,40.00,2,0,5,0.00
2013-4-13,62,49,38,45,32,19,74,54,25,0.00,40.00,1,1,4,0.00
2013-4-14,58,44,36,43,37,24,96,77,51,0.00,40.00,2,1,5,0.00
2013-4-15,44,39,33,40,36,32,97,90,75,0.00,40.00,2,1,5,0.00
2013-4-16,41,35,27,35,29,17,96,79,62,0.00,40.00,1,1,5,0.00
2013-4-17,51,37,25,24,16,4,92,52,15,0.00,40.00,1,1,5,0.00
2013-4-18,57,45,34,18,8,0,43,23,13,0.00,40.00,2,1,6,0.00
2013-4-19,66,49,33,20,13,5,50,26,12,0.00,40.00,1,1,4,0.00
2013-4-20,71,55,36,32,24,18,64,35,14,0.00,40.00,2,0,5,0.00
2013-4-21,72,54,40,29,25,20,60,37,15,0.00,40.00,1,0,4,0.00
2013-4-22,67,52,39,38,28,21,68,43,22,0.00,40.00,1,0,4,0.00
2013-4-23,68,52,38,37,30,24,67,47,21,0.00,40.00,1,0,3,0.00
2013-4-24,66,50,41,47,35,26,99,62,24,0.00,40.00,1,0,5,0.00
2013-4-25,52,41,36,44,39,32,100,93,70,0.00,40.00,1,0,3,0.00
2013-4-26,68,53,35,44,33,26,84,52,23,0.00,40.00,1,0,5,0.00
2013-4-27,75,56,40,35,25,12,66,35,10,0.00,40.00,2,0,6,0.00
2013-4-28,76,60,44,32,26,18,53,30,12,0.00,40.00,1,0,4,0.00
2013-4-29,75,60,45,39,27,18,57,32,12,0.00,40.00,1,1,4,0.00
2013-4-30,67,55,43,46,32,19,78,46,21,0.00,40.00,1,1,4,0.00
2013-5-1,70,57,40,35,20,-2,61,29,8,0.00,40.00,2,1,5,0.00
2013-5-2,71,60,43,12,1,-8,23,10,6,0.00,40.00,2,1,9,0.00
2013-5-3,74,55,38,19,12,5,38,20,10,0.00,40.00,1,0,4,0.00
2013-5-4,66,50,40,39,22,13,57,36,13,0.00,40.00,2,0,5,0.00
2013-5-5,52,44,38,43,32,16,99,67,24,0.00,40.00,1,1,4,0.00
2013-5-6,46,41,38,44,41,37,99,99,93,0.00,40.00,1,1,4,0.00
2013-5-7,46,41,37,42,39,37,99,95,78,0.00,40.00,1,0,4,0.00
2013-5-8,48,42,39,45,41,39,100,97,85,0.00,40.00,1,0,2,0.00
2013-5-9,54,48,39,48,44,38,99,88,73,0.00,40.00,1,0,2,0.00
2013-5-10,70,60,46,51,41,-100,94,56,28,0.00,40.00,2,1,7,0.00
2013-5-11,76,59,44,45,36,-100,95,54,18,0.00,40.00,2,1,6,0.00
2013-5-12,79,63,45,43,34,22,78,42,12,0.00,40.00,2,1,7,0.00
2013-5-13,51,51,51,39,39,39,62,62,62,0.00,40.00,0,0,1,0.00
2013-5-14,72,60,45,27,21,11,40,24,12,0.00,40.00,1,1,4,0.00
2013-5-15,66,54,42,44,34,21,69,49,32,0.00,40.00,1,1,4,0.00
2013-5-16,66,49,43,48,22,-100,87,59,17,0.00,40.00,1,1,4,0.00
2013-5-17,58,50,42,48,38,-100,93,71,43,0.00,40.00,1,1,4,0.00
2013-5-18,61,49,38,49,42,34,91,77,57,0.00,40.00,1,1,4,0.00
2013-5-19,71,54,37,50,38,30,85,59,24,0.00,40.00,1,0,4,0.00
2013-5-20,75,59,44,42,33,24,70,44,16,0.00,40.00,2,0,5,0.00
2013-5-21,72,57,42,40,32,25,62,42,20,0.00,40.00,1,0,3,0.00
2013-5-22,67,54,43,41,31,17,72,43,24,0.00,40.00,1,1,4,0.00
2013-5-23,60,48,36,42,28,0,84,47,9,0.00,40.00,1,1,4,0.00
2013-5-24,61,47,34,41,26,8,78,45,12,0.00,40.00,1,0,4,0.00
2013-5-25,61,48,34,41,26,12,79,45,22,0.00,40.00,1,0,4,0.00
2013-5-26,62,48,34,44,30,12,84,52,22,0.00,40.00,1,0,4,0.00
2013-5-27,65,51,38,49,39,28,84,66,46,0.00,40.00,1,1,4,0.00
2013-5-28,64,52,43,50,42,36,93,70,44,0.00,40.00,1,1,4,0.00
2013-5-29,74,57,40,49,39,32,92,57,28,0.00,40.00,2,1,6,0.00
2013-5-30,73,56,44,48,40,30,75,56,35,0.00,40.00,1,0,3,0.00
2013-5-31,80,62,47,51,39,27,63,44,29,0.00,40.00,1,0,3,0.00
2013-6-1,82,64,51,41,32,25,49,34,13,0.00,40.00,2,0,5,0.00
2013-6-3,73,64,49,46,41,26,64,45,28,0.00,40.00,1,1,3,0.00
2013-6-4,72,57,43,46,29,18,72,36,15,0.00,40.00,1,0,4,0.00
2013-6-5,76,60,45,45,30,14,54,33,13,0.00,40.00,1,0,3,0.00
2013-6-6,78,62,48,51,35,23,66,37,20,0.00,40.00,1,0,4,0.00
2013-6-7,86,66,50,52,32,18,54,31,14,0.00,40.00,1,0,4,0.00
2013-6-8,86,71,55,54,42,28,62,38,12,0.00,40.00,1,1,3,0.00
2013-6-9,80,64,52,44,34,18,62,35,12,0.00,40.00,2,1,5,0.00
2013-6-10,74,62,48,40,27,13,50,27,15,0.00,40.00,1,1,6,0.00
2013-6-11,80,61,47,42,30,13,52,33,12,0.00,40.00,1,0,3,0.00
2013-6-12,76,57,48,48,33,21,65,40,30,0.00,40.00,1,0,3,0.00
2013-6-13,76,62,46,46,31,16,57,33,13,0.00,40.00,1,1,4,0.00
2013-6-14,75,55,43,36,18,7,42,25,9,0.00,40.00,1,0,3,0.00
2013-6-15,72,54,41,34,14,-1,39,22,6,0.00,40.00,1,0,4,0.00
2013-6-16,75,58,40,47,20,7,64,26,9,0.00,40.00,1,0,3,0.00
2013-6-17,76,60,44,46,27,14,60,30,17,0.00,40.00,1,0,4,0.00
2013-6-18,75,58,45,45,31,18,63,38,20,0.00,40.00,1,0,4,0.00
2013-6-19,72,57,44,48,31,16,71,39,25,0.00,40.00,1,0,3,0.00
2013-6-20,72,52,43,32,18,10,38,27,17,0.00,40.00,1,0,3,0.00
2013-6-21,66,66,66,44,44,44,46,46,46,0.00,40.00,1,1,3,0.00
2013-6-22,71,66,47,45,38,30,70,36,28,0.00,40.00,1,1,5,0.00
2013-6-23,68,57,45,48,38,30,76,51,29,0.00,40.00,1,0,4,0.00
2013-6-24,65,54,46,51,43,26,90,68,24,0.00,40.00,1,0,3,0.00
2013-6-25,72,58,46,54,48,42,90,71,48,0.00,40.00,1,0,4,0.00
2013-6-26,81,65,52,54,50,46,84,61,34,0.00,40.00,1,0,4,0.00
2013-6-27,85,66,55,50,46,36,70,52,20,0.00,40.00,1,0,3,0.00
2013-6-28,86,77,55,53,43,18,55,32,18,0.00,40.00,1,1,5,0.00
2013-6-29,91,76,58,49,36,22,46,26,13,0.00,40.00,1,0,3,0.00
2013-6-30,93,77,61,52,38,33,44,27,13,0.00,40.00,1,0,4,0.00
2013-7-1,84,73,62,51,42,34,55,34,23,0.00,40.00,1,0,4,0.00
2013-7-2,84,70,59,56,44,39,58,41,23,0.00,40.00,1,0,4,0.00
2013-7-3,85,70,59,54,44,37,61,41,23,0.00,40.00,1,0,4,0.00
2013-7-4,83,70,59,48,41,35,60,38,22,0.00,40.00,1,0,3,0.00
2013-7-5,81,67,57,56,43,29,65,44,25,0.00,40.00,1,0,3,0.00
2013-7-6,81,66,58,55,46,28,63,50,30,0.00,40.00,1,0,3,0.00
2013-7-7,83,68,55,34,28,24,39,24,14,0.00,40.00,1,0,4,0.00
2013-7-8,86,73,55,39,30,-100,36,23,12,0.00,40.00,1,1,3,0.00
2013-7-9,87,74,59,46,37,27,40,27,14,0.00,40.00,1,0,4,0.00
2013-7-10,81,68,61,54,42,-100,55,42,22,0.00,40.00,1,0,3,0.00
2013-7-11,68,63,56,59,50,43,78,64,49,0.00,40.00,1,0,2,0.00
2013-7-12,77,64,54,57,51,45,77,64,44,0.00,40.00,1,0,3,0.00
2013-7-13,82,68,52,52,42,28,70,42,20,0.00,40.00,1,0,5,0.00
2013-7-15,80,71,55,40,36,31,39,28,19,0.00,40.00,1,1,4,0.00
2013-7-16,78,62,52,36,31,21,46,34,12,0.00,40.00,1,0,4,0.00
2013-7-17,81,59,45,41,25,15,46,30,11,0.00,40.00,1,0,4,0.00
2013-7-18,80,73,51,38,28,15,32,19,13,0.00,40.00,1,0,2,0.00
2013-7-19,82,68,57,44,35,21,44,31,19,0.00,40.00,1,0,4,0.00
2013-7-20,78,68,60,64,54,-100,89,64,26,0.00,40.00,2,0,4,0.00
2013-7-21,70,63,59,65,59,55,96,87,70,0.00,40.00,2,0,5,0.00
2013-7-22,70,62,55,61,58,54,97,88,74,0.00,40.00,1,0,2,0.00
2013-7-23,74,63,54,60,55,53,97,79,52,0.00,40.00,1,0,4,0.00
2013-7-24,78,65,55,58,53,46,94,69,36,0.00,40.00,1,0,4,0.00
2013-7-25,82,69,56,54,50,48,77,54,31,0.00,40.00,1,0,4,0.00
2013-7-26,77,68,59,58,52,41,72,59,42,0.00,40.00,1,0,3,0.00
2013-7-27,78,68,57,58,53,47,81,62,36,0.00,40.00,1,0,3,0.00
2013-7-28,76,64,52,46,36,21,65,37,21,0.00,40.00,1,0,3,0.00
2013-7-29,76,64,49,45,34,21,58,34,22,0.00,40.00,1,0,3,0.00
2013-7-30,76,64,54,49,45,40,71,51,33,0.00,40.00,1,0,4,0.00
2013-7-31,80,67,54,49,39,14,76,40,20,0.00,40.00,1,1,4,0.00
2013-8-1,80,66,54,41,25,13,33,22,10,0.00,40.00,1,1,4,0.00
2013-8-2,77,68,52,46,36,25,56,32,19,0.00,40.00,1,1,3,0.00
2013-8-3,76,65,49,47,35,11,61,36,14,0.00,40.00,1,0,3,0.00
2013-8-4,79,72,52,47,38,16,55,31,19,0.00,40.00,1,1,4,0.00
2013-8-5,80,70,50,40,28,14,37,24,10,0.00,40.00,1,1,4,0.00
2013-8-6,77,68,52,38,26,14,41,24,11,0.00,40.00,1,1,5,0.00
2013-8-7,77,67,48,28,23,17,39,20,13,0.00,40.00,1,1,4,0.00
2013-8-8,74,68,50,27,23,15,40,20,13,0.00,40.00,1,1,4,0.00
2013-8-10,72,64,50,46,41,33,66,45,25,0.00,40.00,1,1,4,0.00
2013-8-11,77,68,47,46,38,26,62,36,20,0.00,40.00,1,1,4,0.00
2013-8-12,79,72,49,46,34,27,56,27,18,0.00,40.00,1,1,4,0.00
2013-8-13,82,68,50,44,32,-100,49,29,18,0.00,40.00,1,1,3,0.00
2013-8-14,87,75,52,42,28,-100,48,21,12,0.00,40.00,1,1,3,0.00
2013-8-15,85,60,58,43,17,-100,54,28,14,0.00,40.00,1,0,5,0.00
2013-8-16,84,71,59,50,38,-100,63,36,24,0.00,40.00,1,1,4,0.00
2013-8-17,86,76,64,50,42,-100,52,33,24,0.00,40.00,1,1,4,0.00
2013-8-18,87,76,63,53,48,45,61,39,26,0.00,40.00,1,0,8,0.00
2013-8-19,82,66,60,56,37,-100,68,50,33,0.00,40.00,1,0,3,0.00
2013-8-20,83,68,57,45,35,-100,58,35,19,0.00,40.00,1,0,3,0.00
2013-8-21,85,77,57,45,39,33,54,27,18,0.00,40.00,1,1,4,0.00
2013-8-24,84,69,58,47,34,-100,66,34,13,0.00,40.00,1,0,3,0.00
2013-8-25,74,64,55,63,52,41,94,65,48,0.00,40.00,1,0,4,0.00
2013-8-26,68,61,56,60,56,52,92,82,70,0.00,40.00,1,0,3,0.00
2013-8-27,56,56,56,54,54,54,92,92,92,0.00,40.00,0,0,1,0.00
2013-8-30,63,62,62,62,61,61,96,96,96,0.00,40.00,0,0,1,0.00
2013-8-31,75,66,61,64,58,-100,97,80,65,0.00,40.00,1,0,3,0.00
2013-9-1,78,70,54,61,56,49,94,64,44,0.00,40.00,1,1,4,0.00
2013-9-2,79,67,55,64,57,50,97,76,41,0.00,40.00,1,0,3,0.00
2013-9-3,67,59,55,65,58,55,97,96,88,0.00,40.00,1,0,2,0.00
2013-9-4,78,62,56,62,57,54,97,85,43,0.00,40.00,1,0,4,0.00
2013-9-5,80,65,56,62,56,53,96,76,39,0.00,40.00,1,0,4,0.00
2013-9-6,82,73,57,56,51,48,96,49,31,0.00,40.00,1,0,4,0.00
2013-9-7,77,63,56,64,52,-100,94,73,43,0.00,40.00,1,0,3,0.00
2013-9-8,78,67,53,55,47,40,90,51,30,0.00,40.00,1,0,4,0.00
2013-9-9,76,64,54,56,48,43,85,58,32,0.00,40.00,1,0,4,0.00
2013-9-25,65,57,45,38,28,10,45,33,23,0.00,40.00,1,1,5,0.00
2013-9-26,53,45,36,44,36,9,94,73,25,0.00,40.00,1,1,3,0.00
2013-9-27,63,49,32,34,22,9,94,41,17,0.00,40.00,1,1,4,0.00
2013-9-28,71,61,38,18,12,-100,36,17,12,0.00,40.00,1,1,4,0.00
2013-9-29,72,60,40,23,17,14,41,22,12,0.00,40.00,1,1,4,0.00
2013-9-30,74,64,43,30,20,15,45,20,11,0.00,40.00,1,1,3,0.00
2013-10-2,68,57,45,44,34,14,74,45,24,0.00,40.00,1,1,3,0.00
2013-10-3,62,54,40,49,37,14,91,54,32,0.00,40.00,1,1,3,0.00
2013-10-4,67,60,52,28,10,-7,26,15,7,0.00,40.00,2,1,11,0.00
2013-10-5,69,59,47,9,5,-3,17,12,8,0.00,40.00,2,1,10,0.00
2013-10-6,73,70,65,12,10,8,11,10,9,0.00,40.00,1,1,3,0.00
2013-10-7,69,61,39,25,13,3,42,18,9,0.00,40.00,1,1,3,0.00
2013-10-8,42,41,40,15,13,11,33,31,30,0.00,40.00,0,0,1,0.00
2013-10-18,68,61,37,26,20,17,60,24,15,0.00,40.00,1,1,3,0.00
2013-10-19,70,63,64,19,7,-100,17,12,12,0.00,40.00,1,1,3,0.00
2013-10-20,69,62,39,24,16,12,36,19,12,0.00,40.00,1,1,3,0.00
2013-10-21,71,64,39,30,20,14,40,20,12,0.00,40.00,1,1,4,0.00
2013-10-22,70,68,66,21,18,17,18,15,14,0.00,40.00,1,1,3,0.00
2013-10-23,68,65,61,43,29,19,51,28,17,0.00,40.00,1,1,2,0.00
2013-10-24,67,52,39,35,27,21,57,41,17,0.00,40.00,1,0,3,0.00
2013-10-25,70,58,40,35,25,21,52,32,15,0.00,40.00,1,0,3,0.00
2013-10-26,71,63,55,33,21,-100,36,23,16,0.00,40.00,1,0,4,0.00
2013-10-27,66,55,41,38,30,21,69,43,18,0.00,40.00,1,1,3,0.00
2013-11-4,45,37,30,40,33,22,97,86,70,0.00,40.00,1,0,2,0.00
2013-11-5,53,48,34,29,25,18,73,42,26,0.00,40.00,1,1,3,0.00
2013-11-6,63,61,56,11,6,4,16,11,10,0.00,40.00,1,1,3,0.00
2013-11-7,66,61,43,19,14,10,36,17,11,0.00,40.00,1,1,3,0.00
2013-11-8,60,40,37,22,18,9,50,41,13,0.00,40.00,1,0,2,0.00
2013-11-9,64,46,35,16,8,-100,43,26,13,0.00,40.00,1,0,3,0.00
2013-11-10,62,50,39,21,17,13,43,30,15,0.00,40.00,1,0,3,0.00
2013-11-14,68,59,42,26,23,19,53,26,16,0.00,40.00,1,1,3,0.00
2013-11-15,46,43,38,41,36,28,97,78,53,0.00,40.00,1,0,3,0.00
2013-11-16,41,38,38,40,35,-100,100,96,92,0.00,40.00,1,0,2,0.00
2013-11-17,48,38,32,43,37,32,100,95,80,0.00,40.00,1,0,2,0.00
2013-11-18,53,37,31,42,35,31,100,93,68,0.00,40.00,1,0,3,0.00
2013-11-19,50,42,35,44,40,33,97,93,79,0.00,40.00,1,1,3,0.00
2013-11-20,50,44,36,43,39,33,96,85,63,0.00,40.00,1,1,4,0.00
2013-11-21,44,41,33,44,40,33,100,98,97,0.00,40.00,1,1,4,0.00
2013-11-22,38,33,31,38,33,31,100,100,98,0.00,40.00,1,0,2,0.00
2013-11-23,41,32,28,38,30,-100,100,99,87,0.00,40.00,1,0,3,0.00
2013-11-24,42,33,27,36,31,27,100,94,75,0.00,40.00,1,0,2,0.00
2013-11-25,53,41,30,34,30,22,100,69,32,0.00,40.00,2,1,5,0.00
2013-11-26,56,54,45,35,29,27,68,40,33,0.00,40.00,1,1,3,0.00
2013-11-27,53,48,37,32,29,28,74,51,38,0.00,40.00,1,0,4,0.00
2013-11-28,51,40,31,34,30,27,86,68,42,0.00,40.00,1,0,3,0.00
2013-11-29,48,41,32,45,38,29,99,89,61,0.00,40.00,1,0,1,0.00
2013-11-30,54,38,33,47,32,-100,100,87,49,0.00,40.00,1,0,4,0.00
2013-12-1,57,40,32,35,32,30,97,80,36,0.00,40.00,1,0,3,0.00
2013-12-2,61,56,43,31,26,21,60,33,22,0.00,40.00,1,0,2,0.00
2013-12-3,54,44,35,40,31,18,99,68,25,0.00,40.00,1,1,4,0.00
2013-12-4,40,33,28,40,31,25,100,94,67,0.00,40.00,2,1,5,0.00
2013-12-5,34,28,24,29,26,21,100,92,63,0.00,40.00,1,0,2,0.00
2013-12-6,32,27,19,30,25,18,100,94,78,0.00,40.00,1,0,2,0.00
2013-12-7,33,29,24,33,29,23,100,98,91,0.00,40.00,1,1,4,0.00
2013-12-8,31,26,21,31,26,20,99,97,92,0.00,40.00,1,0,2,0.00
2013-12-9,34,21,16,16,14,0,96,80,24,0.00,40.00,2,0,6,0.00
2013-12-10,49,49,49,10,10,10,21,21,21,0.00,40.00,1,1,3,0.00
2013-12-11,50,37,30,26,23,17,86,66,27,0.00,40.00,1,0,2,0.00
2013-12-12,49,39,29,25,21,14,84,54,26,0.00,40.00,1,0,2,0.00
2013-12-13,49,40,27,23,19,12,82,48,25,0.00,40.00,3,1,7,0.00
2013-12-14,56,47,41,20,5,-100,40,21,11,0.00,40.00,3,1,8,0.00
2013-12-15,63,62,57,28,20,17,32,21,17,0.00,40.00,1,1,6,0.00
2013-12-16,65,65,65,28,28,28,24,24,24,0.00,40.00,1,1,2,0.00
2013-12-17,68,48,43,34,30,24,63,54,19,0.00,40.00,1,0,2,0.00
2013-12-18,59,45,34,40,26,22,64,49,23,0.00,40.00,1,0,2,0.00
2013-12-19,34,32,30,33,32,23,100,99,64,0.00,40.00,1,0,3,0.00
2013-12-20,37,29,26,36,29,25,100,99,95,0.00,40.00,1,0,5,0.00
2013-12-21,42,27,25,39,25,-100,100,97,89,0.00,40.00,1,0,3,0.00
2013-12-22,34,30,28,32,30,28,100,98,92,0.00,40.00,1,0,4,0.00
2013-12-23,50,50,50,35,35,35,56,56,56,0.00,40.00,0,0,1,0.00
2013-12-24,58,49,42,31,27,20,61,44,29,0.00,40.00,2,1,5,0.00
2013-12-25,60,52,42,20,6,-3,41,17,8,0.00,40.00,2,1,9,0.00
2013-12-31,59,42,32,20,14,9,47,35,14,0.00,40.00,1,0,2,0.00
2014-1-1,62,51,35,20,17,13,42,29,20,0.00,40.00,1,1,1,0.00
2014-1-2,61,48,35,23,21,19,56,39,20,0.00,40.00,1,0,3,0.00